Terminal Aerodrome Forecast
Issued by NWS Knoxville/Tri Cities, TN

Home | Current Version | Previous Version | Text Only | Print | Product List | Glossary On
Versions: 1 2 3 4 5 6 7 8 9 10 11 12 13 14 15 16 17 18 19 20 21 22 23 24 25 26 27 28 29 30 31 32
000
FTUS44 KMRX 301930 AAA
TAFTRI
TAF AMD
KTRI 301930Z 3020/3118 15012G22KT P6SM SCT070 SCT090 BKN200
     FM310200 11008G18KT P6SM SCT060 BKN120
     FM310600 18010G20KT P6SM VCSH BKN050
     FM310900 17010KT 4SM -TSRA BR BKN040CB
     FM311200 24008KT 5SM -SHRA BR SCT020 BKN035
     FM311400 25010KT P6SM VCSH BKN035=

USA.gov is the U.S. government's official web portal to all federal, state and local government web resources and services.